createdAt,value
2022-09-01T00:01:50.159Z,100.00
2022-09-01T00:04:22.053Z,100.00
2022-09-01T00:06:50.222Z,100.00
2022-09-01T00:09:19.513Z,100.00
2022-09-01T00:11:51.068Z,100.00
2022-09-01T00:14:29.728Z,100.00
2022-09-01T00:17:00.570Z,100.00
2022-09-01T00:19:31.593Z,100.00
2022-09-01T00:22:00.359Z,100.00
2022-09-01T00:24:28.003Z,100.00
2022-09-01T00:26:56.959Z,100.00
2022-09-01T00:29:26.263Z,100.00
2022-09-01T00:31:53.939Z,100.00
2022-09-01T00:34:25.225Z,100.00
2022-09-01T00:36:55.529Z,100.00
2022-09-01T00:39:22.972Z,100.00
2022-09-01T00:41:50.280Z,100.00
2022-09-01T00:44:20.521Z,100.00
2022-09-01T00:46:55.511Z,100.00
2022-09-01T00:49:51.271Z,100.00
2022-09-01T00:52:42.983Z,100.00
2022-09-01T00:55:16.251Z,100.00
2022-09-01T00:57:45.461Z,100.00
2022-09-01T01:00:34.319Z,100.00
2022-09-01T01:03:01.803Z,100.00
2022-09-01T01:05:36.589Z,100.00
2022-09-01T01:08:05.003Z,100.00
2022-09-01T01:10:36.824Z,100.00
2022-09-01T01:13:16.975Z,100.00
2022-09-01T01:15:44.745Z,100.00
2022-09-01T01:18:23.011Z,100.00
2022-09-01T01:21:04.434Z,100.00
2022-09-01T01:23:48.015Z,100.00
2022-09-01T01:26:15.575Z,100.00
2022-09-01T01:28:43.479Z,100.00
2022-09-01T01:31:18.558Z,100.00
2022-09-01T01:33:53.321Z,100.00
2022-09-01T01:36:27.533Z,100.00
2022-09-01T01:38:54.902Z,100.00
2022-09-01T01:41:22.156Z,100.00
2022-09-01T01:43:49.386Z,100.00
2022-09-01T01:46:20.696Z,100.00
2022-09-01T01:48:50.022Z,100.00
2022-09-01T01:51:19.073Z,100.00
2022-09-01T01:53:46.428Z,100.00
2022-09-01T01:56:14.382Z,100.00
2022-09-01T01:58:41.913Z,100.00
2022-09-01T02:01:09.343Z,100.00
2022-09-01T02:03:36.753Z,100.00
2022-09-01T02:06:09.168Z,100.00
2022-09-01T02:08:38.450Z,100.00
2022-09-01T02:11:07.719Z,100.00
2022-09-01T02:13:35.271Z,100.00
2022-09-01T02:16:06.362Z,100.00
2022-09-01T02:18:36.830Z,100.00
2022-09-01T02:21:06.671Z,100.00
2022-09-01T02:23:33.991Z,100.00
2022-09-01T02:26:17.970Z,100.00
2022-09-01T02:28:52.142Z,100.00
2022-09-01T02:31:22.461Z,100.00
2022-09-01T02:33:50.373Z,100.00
2022-09-01T02:36:18.654Z,100.00
2022-09-01T02:38:53.396Z,100.00
2022-09-01T02:41:22.729Z,100.00
2022-09-01T02:43:50.886Z,100.00
2022-09-01T02:46:18.794Z,100.00
2022-09-01T02:48:46.429Z,99.63
2022-09-01T02:51:17.071Z,98.20
2022-09-01T02:53:48.869Z,98.17
2022-09-01T02:56:16.279Z,98.13
2022-09-01T02:58:45.822Z,97.41
2022-09-01T03:01:26.155Z,94.98
2022-09-01T03:03:58.753Z,94.95
2022-09-01T03:06:26.854Z,94.76
2022-09-01T03:08:56.891Z,94.76
2022-09-01T03:11:24.413Z,94.10
2022-09-01T03:13:52.925Z,94.85
2022-09-01T03:16:21.167Z,95.41
2022-09-01T03:18:48.802Z,96.16
2022-09-01T03:21:16.343Z,93.50
2022-09-01T03:23:48.188Z,95.55
2022-09-01T03:26:16.972Z,94.06
2022-09-01T03:28:45.198Z,93.18
2022-09-01T03:31:13.322Z,93.25
2022-09-01T03:33:41.193Z,92.61
2022-09-01T03:36:15.127Z,92.55
2022-09-01T03:38:43.016Z,94.10
2022-09-01T03:41:10.501Z,94.29
2022-09-01T03:43:37.886Z,93.58
2022-09-01T03:46:18.146Z,93.87
2022-09-01T03:48:56.540Z,94.26
2022-09-01T03:51:25.447Z,92.69
2022-09-01T03:53:54.492Z,92.18
2022-09-01T03:56:25.830Z,91.28
2022-09-01T03:58:56.790Z,92.93
2022-09-01T04:01:29.187Z,92.50
2022-09-01T04:03:57.187Z,92.90
2022-09-01T04:06:28.061Z,94.05
2022-09-01T04:08:56.033Z,94.47
2022-09-01T04:11:30.739Z,93.00
2022-09-01T04:13:59.334Z,92.14
2022-09-01T04:16:30.430Z,91.80
2022-09-01T04:18:59.531Z,92.86
2022-09-01T04:21:29.847Z,94.36
2022-09-01T04:24:02.156Z,93.17
2022-09-01T04:26:29.643Z,92.81
2022-09-01T04:28:59.932Z,92.60
2022-09-01T04:31:30.398Z,93.56
2022-09-01T04:34:01.046Z,95.19
2022-09-01T04:36:34.510Z,93.25
2022-09-01T04:39:04.124Z,92.63
2022-09-01T04:41:33.862Z,93.01
2022-09-01T04:44:02.960Z,91.37
2022-09-01T04:46:33.022Z,91.41
2022-09-01T04:49:04.339Z,91.87
2022-09-01T04:51:32.599Z,90.83
2022-09-01T04:54:02.723Z,89.81
2022-09-01T04:56:32.404Z,89.98
2022-09-01T04:59:03.785Z,91.95
2022-09-01T05:01:31.228Z,89.75
2022-09-01T05:04:01.593Z,87.95
2022-09-01T05:06:32.045Z,89.05
2022-09-01T05:08:59.856Z,89.38
2022-09-01T05:11:30.427Z,89.52
2022-09-01T05:13:58.467Z,90.19
2022-09-01T05:16:26.667Z,86.71
2022-09-01T05:18:57.479Z,84.22
2022-09-01T05:21:25.352Z,84.51
2022-09-01T05:23:55.807Z,83.17
2022-09-01T05:26:31.505Z,86.71
2022-09-01T05:29:02.456Z,85.28
2022-09-01T05:31:31.437Z,83.90
2022-09-01T05:33:59.475Z,80.92
2022-09-01T05:36:30.895Z,82.12
2022-09-01T05:38:58.554Z,84.06
2022-09-01T05:41:26.626Z,81.10
2022-09-01T05:44:00.036Z,83.61
2022-09-01T05:46:28.475Z,84.99
2022-09-01T05:48:57.140Z,83.48
2022-09-01T05:51:43.922Z,82.83
2022-09-01T05:54:12.964Z,82.72
2022-09-01T05:56:44.790Z,81.20
2022-09-01T05:59:29.762Z,81.61
2022-09-01T06:01:58.075Z,81.18
2022-09-01T06:04:26.386Z,78.84
2022-09-01T06:07:06.580Z,75.37
2022-09-01T06:09:43.996Z,75.85
2022-09-01T06:12:23.490Z,76.09
2022-09-01T06:14:55.442Z,75.31
2022-09-01T06:17:26.695Z,76.86
2022-09-01T06:20:01.293Z,77.65
2022-09-01T06:22:37.616Z,75.81
2022-09-01T06:25:09.910Z,77.62
2022-09-01T06:27:44.116Z,77.09
2022-09-01T06:30:22.569Z,76.11
2022-09-01T06:32:56.871Z,75.75
2022-09-01T06:35:48.823Z,76.03
2022-09-01T06:38:19.113Z,76.03
2022-09-01T06:40:51.114Z,77.48
2022-09-01T06:43:22.407Z,76.60
2022-09-01T06:45:53.395Z,75.62
2022-09-01T06:48:26.896Z,75.59
2022-09-01T06:53:52.471Z,74.37
2022-09-01T06:56:20.515Z,73.96
2022-09-01T06:58:48.139Z,74.76
2022-09-01T07:01:19.983Z,74.14
2022-09-01T07:03:52.533Z,74.15
2022-09-01T07:09:20.126Z,72.94
2022-09-01T07:17:34.591Z,73.26
2022-09-01T07:23:04.414Z,72.35
2022-09-01T07:28:36.882Z,73.71
2022-09-01T07:43:08.013Z,73.49
2022-09-01T07:45:47.708Z,72.33
2022-09-01T07:48:36.048Z,71.44
2022-09-01T07:53:58.414Z,70.89
2022-09-01T07:56:29.906Z,71.34
2022-09-01T07:59:05.053Z,71.13
2022-09-01T08:01:35.771Z,71.78
2022-09-01T08:04:06.244Z,71.14
2022-09-01T08:06:38.547Z,69.92
2022-09-01T08:09:06.857Z,70.76
2022-09-01T08:12:01.686Z,70.90
2022-09-01T08:14:36.374Z,70.42
2022-09-01T08:19:58.129Z,69.43
2022-09-01T08:22:26.316Z,68.33
2022-09-01T08:24:57.826Z,68.14
2022-09-01T08:27:32.589Z,69.58
2022-09-01T08:30:04.821Z,69.89
2022-09-01T08:32:32.664Z,70.68
2022-09-01T08:35:04.013Z,69.67
2022-09-01T08:37:34.447Z,68.38
2022-09-01T08:40:03.888Z,68.38
2022-09-01T08:43:11.940Z,68.06
2022-09-01T08:45:51.936Z,68.43
2022-09-01T08:51:44.058Z,66.37
2022-09-01T08:54:29.824Z,66.81
2022-09-01T08:57:05.957Z,67.22
2022-09-01T08:59:39.507Z,66.94
2022-09-01T09:02:10.192Z,67.68
2022-09-01T09:04:46.681Z,65.51
2022-09-01T09:07:24.462Z,65.65
2022-09-01T09:10:03.971Z,65.26
2022-09-01T09:12:52.757Z,65.48
2022-09-01T09:15:38.317Z,64.38
2022-09-01T09:18:39.435Z,64.54
2022-09-01T09:21:22.948Z,64.98
2022-09-01T09:24:09.869Z,65.23
2022-09-01T09:26:44.906Z,63.44
2022-09-01T09:29:18.588Z,62.21
2022-09-01T09:32:06.651Z,62.47
2022-09-01T09:34:37.383Z,63.37
2022-09-01T09:37:28.747Z,64.62
2022-09-01T09:40:09.928Z,64.72
2022-09-01T09:42:43.851Z,64.04
2022-09-01T09:45:26.021Z,63.71
2022-09-01T09:47:55.880Z,65.55
2022-09-01T09:50:26.578Z,62.74
2022-09-01T09:53:16.185Z,63.30
2022-09-01T09:55:56.877Z,62.72
2022-09-01T09:58:36.302Z,62.64
2022-09-01T10:01:28.896Z,64.42
2022-09-01T10:04:04.951Z,63.24
2022-09-01T10:06:47.815Z,63.14
2022-09-01T10:09:25.116Z,63.14
2022-09-01T10:11:57.273Z,63.21
2022-09-01T10:14:53.187Z,62.24
2022-09-01T10:17:35.670Z,61.88
2022-09-01T10:20:17.643Z,62.91
2022-09-01T10:22:45.912Z,64.78
2022-09-01T10:25:23.473Z,62.64
2022-09-01T10:28:01.855Z,62.11
2022-09-01T10:30:30.632Z,62.35
2022-09-01T10:33:11.014Z,63.25
2022-09-01T10:35:49.658Z,61.98
2022-09-01T10:38:29.198Z,61.18
2022-09-01T10:40:59.762Z,61.91
2022-09-01T10:43:37.891Z,63.45
2022-09-01T10:46:41.091Z,62.04
2022-09-01T10:49:29.797Z,63.84
2022-09-01T10:52:03.332Z,63.35
2022-09-01T10:54:51.042Z,63.24
2022-09-01T10:57:41.881Z,62.59
2022-09-01T11:00:36.974Z,63.14
2022-09-01T11:06:18.962Z,63.25
2022-09-01T11:09:00.521Z,62.77
2022-09-01T11:11:48.948Z,63.45
2022-09-01T11:14:25.170Z,63.14
2022-09-01T11:17:27.747Z,63.48
2022-09-01T11:20:01.016Z,63.86
2022-09-01T11:22:41.280Z,63.33
2022-09-01T11:25:40.287Z,62.20
2022-09-01T11:28:28.662Z,62.96
2022-09-01T11:31:10.779Z,63.90
2022-09-01T11:33:56.346Z,62.94
2022-09-01T11:36:43.108Z,62.53
2022-09-01T11:39:13.886Z,62.88
2022-09-01T11:42:10.842Z,62.82
2022-09-01T11:44:42.678Z,61.91
2022-09-01T11:47:29.043Z,62.77
2022-09-01T11:50:04.187Z,61.79
2022-09-01T11:52:42.371Z,62.32
2022-09-01T11:55:13.724Z,60.79
2022-09-01T11:57:44.352Z,62.09
2022-09-01T12:00:14.545Z,61.48
2022-09-01T12:02:48.202Z,62.35
2022-09-01T12:05:31.458Z,61.95
2022-09-01T12:08:13.088Z,61.62
2022-09-01T12:10:45.624Z,61.97
2022-09-01T12:13:22.397Z,61.63
2022-09-01T12:16:18.333Z,61.12
2022-09-01T12:18:53.511Z,60.66
2022-09-01T12:21:39.777Z,59.44
2022-09-01T12:24:36.510Z,61.65
2022-09-01T12:27:13.791Z,60.35
2022-09-01T12:29:49.360Z,61.93
2022-09-01T12:32:19.905Z,61.21
2022-09-01T12:35:11.488Z,60.94
2022-09-01T12:37:42.616Z,60.71
2022-09-01T12:40:35.456Z,61.41
2022-09-01T12:43:05.637Z,61.02
2022-09-01T12:45:51.100Z,61.54
2022-09-01T12:48:37.931Z,61.66
2022-09-01T12:51:27.998Z,60.62
2022-09-01T12:54:04.579Z,61.12
2022-09-01T12:56:36.664Z,60.74
2022-09-01T12:59:29.923Z,59.77
2022-09-01T13:02:44.781Z,59.29
2022-09-01T13:05:34.600Z,60.83
2022-09-01T13:08:23.529Z,60.40
2022-09-01T13:11:14.192Z,61.57
2022-09-01T13:13:51.146Z,61.50
2022-09-01T13:16:25.245Z,61.97
2022-09-01T13:19:26.588Z,61.91
2022-09-01T13:21:52.824Z,61.99
2022-09-01T13:24:27.890Z,62.58
2022-09-01T13:29:55.541Z,61.10
2022-09-01T13:32:26.696Z,60.90
2022-09-01T13:34:55.091Z,62.07
2022-09-01T13:37:25.320Z,61.93
2022-09-01T13:39:56.005Z,61.35
2022-09-01T13:42:28.542Z,61.28
2022-09-01T13:45:02.946Z,61.08
2022-09-01T13:47:35.307Z,60.62
2022-09-01T13:50:28.758Z,60.44
2022-09-01T13:53:21.481Z,61.68
2022-09-01T13:55:51.740Z,62.03
2022-09-01T13:58:28.168Z,61.98
2022-09-01T14:01:01.570Z,61.70
2022-09-01T14:03:35.230Z,62.02
2022-09-01T14:06:06.892Z,61.96
2022-09-01T14:08:39.270Z,63.08
2022-09-01T14:11:09.039Z,62.30
2022-09-01T14:13:45.863Z,62.58
2022-09-01T14:16:20.150Z,61.59
2022-09-01T14:18:51.001Z,62.53
2022-09-01T14:21:24.530Z,62.39
2022-09-01T14:23:53.153Z,62.05
2022-09-01T14:26:23.349Z,62.94
2022-09-01T14:28:58.737Z,62.08
2022-09-01T14:31:33.546Z,61.73
2022-09-01T14:34:05.370Z,61.84
2022-09-01T14:36:36.605Z,60.83
2022-09-01T14:39:06.150Z,60.62
2022-09-01T14:41:36.599Z,60.56
2022-09-01T14:44:06.965Z,60.80
2022-09-01T14:46:35.456Z,60.70
2022-09-01T14:49:04.211Z,60.74
2022-09-01T14:54:31.156Z,63.34
2022-09-01T15:00:04.962Z,62.60
2022-09-01T15:02:32.978Z,63.58
2022-09-01T15:05:09.461Z,62.35
2022-09-01T15:07:42.015Z,61.45
2022-09-01T15:10:15.815Z,61.21
2022-09-01T15:13:10.176Z,61.34
2022-09-01T15:16:00.267Z,62.67
2022-09-01T15:18:53.296Z,62.32
2022-09-01T15:21:45.530Z,63.38
2022-09-01T15:24:37.037Z,63.97
2022-09-01T15:27:14.507Z,63.97
2022-09-01T15:29:45.470Z,63.71
2022-09-01T15:32:28.045Z,62.47
2022-09-01T15:35:08.004Z,63.13
2022-09-01T15:37:43.220Z,63.58
2022-09-01T15:40:11.101Z,61.80
2022-09-01T15:42:39.234Z,62.81
2022-09-01T15:45:15.199Z,62.51
2022-09-01T15:47:46.114Z,63.35
2022-09-01T15:50:27.425Z,63.57
2022-09-01T15:52:58.725Z,63.61
2022-09-01T15:55:37.236Z,64.22
2022-09-01T15:58:09.550Z,62.73
2022-09-01T16:00:43.857Z,63.04
2022-09-01T16:03:15.477Z,63.15
2022-09-01T16:05:49.584Z,63.50
2022-09-01T16:08:22.729Z,63.61
2022-09-01T16:10:57.121Z,63.31
2022-09-01T16:13:24.816Z,63.49
2022-09-01T16:16:11.328Z,64.76
2022-09-01T16:18:50.496Z,64.57
2022-09-01T16:21:39.089Z,65.43
2022-09-01T16:24:17.050Z,64.72
2022-09-01T16:26:48.088Z,64.65
2022-09-01T16:29:53.453Z,65.24
2022-09-01T16:32:21.982Z,64.66
2022-09-01T16:34:53.720Z,65.93
2022-09-01T16:37:43.057Z,66.57
2022-09-01T16:40:32.515Z,64.72
2022-09-01T16:43:15.710Z,65.39
2022-09-01T16:46:01.167Z,65.30
2022-09-01T16:48:38.028Z,65.20
2022-09-01T16:51:37.110Z,65.47
2022-09-01T16:54:52.596Z,66.04
2022-09-01T16:57:38.559Z,65.71
2022-09-01T17:00:15.527Z,66.45
2022-09-01T17:03:17.341Z,65.82
2022-09-01T17:06:02.338Z,66.58
2022-09-01T17:08:41.299Z,65.83
2022-09-01T17:11:17.760Z,66.13
2022-09-01T17:13:50.620Z,66.15
2022-09-01T17:16:48.457Z,66.77
2022-09-01T17:19:19.168Z,66.14
2022-09-01T17:22:11.076Z,66.37
2022-09-01T17:24:46.294Z,66.36
2022-09-01T17:27:31.930Z,66.74
2022-09-01T17:30:02.063Z,66.86
2022-09-01T17:32:32.353Z,67.89
2022-09-01T17:35:18.667Z,67.96
2022-09-01T17:38:11.308Z,69.41
2022-09-01T17:41:12.381Z,70.11
2022-09-01T17:43:46.560Z,67.37
2022-09-01T17:46:36.100Z,68.19
2022-09-01T17:49:47.721Z,69.01
2022-09-01T17:52:35.409Z,67.00
2022-09-01T17:55:16.276Z,68.86
2022-09-01T17:57:49.327Z,68.60
2022-09-01T18:00:29.929Z,68.84
2022-09-01T18:03:15.582Z,69.11
2022-09-01T18:06:08.869Z,69.33
2022-09-01T18:08:53.156Z,69.28
2022-09-01T18:11:51.567Z,69.08
2022-09-01T18:14:34.130Z,69.60
2022-09-01T18:17:31.950Z,68.51
2022-09-01T18:20:11.074Z,70.00
2022-09-01T18:22:51.084Z,68.99
2022-09-01T18:25:29.117Z,69.67
2022-09-01T18:27:57.363Z,69.76
2022-09-01T18:30:51.999Z,68.95
2022-09-01T18:33:40.864Z,69.07
2022-09-01T18:36:44.676Z,70.07
2022-09-01T18:39:20.456Z,68.83
2022-09-01T18:42:18.502Z,69.14
2022-09-01T18:45:28.038Z,69.16
2022-09-01T18:48:43.074Z,68.38
2022-09-01T18:51:35.658Z,68.28
2022-09-01T18:54:29.822Z,67.71
2022-09-01T18:57:02.384Z,68.04
2022-09-01T18:59:52.067Z,67.35
2022-09-01T19:02:44.389Z,67.48
2022-09-01T19:05:38.208Z,67.41
2022-09-01T19:08:20.912Z,68.17
2022-09-01T19:10:58.205Z,67.57
2022-09-01T19:13:43.991Z,67.42
2022-09-01T19:16:45.699Z,68.64
2022-09-01T19:19:40.707Z,68.68
2022-09-01T19:22:14.855Z,67.85
2022-09-01T19:24:50.765Z,66.89
2022-09-01T19:27:31.860Z,67.31
2022-09-01T19:30:05.295Z,67.77
2022-09-01T19:32:35.384Z,68.16
2022-09-01T19:35:13.101Z,68.20
2022-09-01T19:37:41.111Z,67.81
2022-09-01T19:40:09.524Z,68.70
2022-09-01T19:42:39.621Z,68.24
2022-09-01T19:45:21.708Z,68.43
2022-09-01T19:47:55.078Z,68.66
2022-09-01T19:50:29.721Z,69.28
2022-09-01T19:53:05.435Z,69.39
2022-09-01T19:55:41.977Z,68.93
2022-09-01T19:58:16.623Z,68.53
2022-09-01T20:00:51.538Z,68.82
2022-09-01T20:03:36.457Z,69.91
2022-09-01T20:06:17.390Z,70.46
2022-09-01T20:09:09.820Z,71.72
2022-09-01T20:11:58.853Z,72.28
2022-09-01T20:14:52.774Z,72.35
2022-09-01T20:17:37.966Z,72.68
2022-09-01T20:20:13.826Z,72.14
2022-09-01T20:22:57.810Z,71.62
2022-09-01T20:26:14.672Z,72.04
2022-09-01T20:28:54.391Z,72.81
2022-09-01T20:31:34.305Z,72.64
2022-09-01T20:34:32.862Z,71.73
2022-09-01T20:37:12.307Z,72.07
2022-09-01T20:39:47.513Z,72.41
2022-09-01T20:42:42.821Z,71.72
2022-09-01T20:45:19.679Z,71.23
2022-09-01T20:48:00.115Z,71.79
2022-09-01T20:50:44.144Z,70.69
2022-09-01T20:53:23.245Z,70.99
2022-09-01T20:56:13.436Z,70.19
2022-09-01T20:59:06.289Z,70.29
2022-09-01T21:01:47.175Z,70.67
2022-09-01T21:04:28.691Z,70.10
2022-09-01T21:07:20.267Z,69.58
2022-09-01T21:10:02.760Z,69.01
2022-09-01T21:12:41.947Z,69.14
2022-09-01T21:15:29.902Z,68.71
2022-09-01T21:18:15.948Z,68.12
2022-09-01T21:21:08.045Z,67.71
2022-09-01T21:23:38.251Z,66.96
2022-09-01T21:26:08.923Z,67.23
2022-09-01T21:28:40.096Z,66.73
2022-09-01T21:31:23.496Z,66.48
2022-09-01T21:33:57.235Z,66.74
2022-09-01T21:36:27.377Z,66.49
2022-09-01T21:38:57.998Z,66.26
2022-09-01T21:41:26.439Z,66.33
2022-09-01T21:43:53.885Z,65.57
2022-09-01T21:46:28.178Z,65.40
2022-09-01T21:49:02.321Z,65.19
2022-09-01T21:51:33.620Z,65.63
2022-09-01T21:54:04.926Z,65.66
2022-09-01T21:56:36.730Z,65.70
2022-09-01T21:59:06.570Z,65.95
2022-09-01T22:01:39.498Z,65.39
2022-09-01T22:04:10.873Z,66.24
2022-09-01T22:06:49.439Z,66.93
2022-09-01T22:09:20.433Z,66.30
2022-09-01T22:11:51.215Z,66.12
2022-09-01T22:14:24.977Z,65.85
2022-09-01T22:16:55.838Z,66.60
2022-09-01T22:19:27.085Z,66.26
2022-09-01T22:21:55.229Z,66.35
2022-09-01T22:24:26.711Z,67.22
2022-09-01T22:26:57.284Z,67.04
2022-09-01T22:29:24.906Z,67.36
2022-09-01T22:31:55.419Z,67.48
2022-09-01T22:34:27.161Z,66.35
2022-09-01T22:36:57.958Z,65.71
2022-09-01T22:39:28.735Z,66.30
2022-09-01T22:41:58.879Z,65.80
2022-09-01T22:44:30.149Z,65.35
2022-09-01T22:47:00.495Z,66.02
2022-09-01T22:49:33.857Z,65.47
2022-09-01T22:52:01.897Z,65.40
2022-09-01T22:54:35.419Z,65.84
2022-09-01T22:57:09.414Z,66.28
2022-09-01T22:59:41.741Z,65.74
2022-09-01T23:02:10.621Z,66.39
2022-09-01T23:04:39.337Z,66.88
2022-09-01T23:07:11.217Z,66.34
2022-09-01T23:09:41.703Z,66.16
2022-09-01T23:12:13.744Z,66.42
2022-09-01T23:14:45.117Z,66.39
2022-09-01T23:17:24.584Z,67.49
2022-09-01T23:19:59.165Z,66.76
2022-09-01T23:22:29.496Z,66.89
2022-09-01T23:25:02.636Z,67.20
2022-09-01T23:27:33.548Z,67.23
2022-09-01T23:30:00.950Z,67.42
2022-09-01T23:32:31.762Z,67.62
2022-09-01T23:35:06.116Z,67.77
2022-09-01T23:37:36.366Z,68.04
2022-09-01T23:40:06.097Z,67.97
2022-09-01T23:42:33.966Z,68.71
2022-09-01T23:45:12.505Z,68.67
2022-09-01T23:47:41.068Z,68.63
2022-09-01T23:50:12.971Z,68.54
2022-09-01T23:52:43.890Z,68.90
2022-09-01T23:55:17.834Z,68.62
2022-09-01T23:57:49.171Z,68.87
